sensor_id;sensor_type;location;lat;lon;timestamp;temperature;humidity
21823;DHT22;11074;48.596;9.238;2023-03-14T00:02:10;11.00;99.90
21823;DHT22;11074;48.596;9.238;2023-03-14T00:04:36;11.00;99.90
21823;DHT22;11074;48.596;9.238;2023-03-14T00:07:02;10.90;99.90
21823;DHT22;11074;48.596;9.238;2023-03-14T00:09:28;10.90;99.90
21823;DHT22;11074;48.596;9.238;2023-03-14T00:11:55;10.90;99.90
21823;DHT22;11074;48.596;9.238;2023-03-14T00:14:21;11.00;99.90
21823;DHT22;11074;48.596;9.238;2023-03-14T00:16:47;11.00;99.90
21823;DHT22;11074;48.596;9.238;2023-03-14T00:19:13;11.00;99.90
21823;DHT22;11074;48.596;9.238;2023-03-14T00:21:39;11.00;99.90
21823;DHT22;11074;48.596;9.238;2023-03-14T00:24:05;11.00;99.90
21823;DHT22;11074;48.596;9.238;2023-03-14T00:26:31;11.00;99.90
21823;DHT22;11074;48.596;9.238;2023-03-14T00:28:57;11.00;99.90
21823;DHT22;11074;48.596;9.238;2023-03-14T00:31:22;11.00;99.90
21823;DHT22;11074;48.596;9.238;2023-03-14T00:33:48;10.90;99.90
21823;DHT22;11074;48.596;9.238;2023-03-14T00:36:18;10.90;99.90
21823;DHT22;11074;48.596;9.238;2023-03-14T00:38:47;10.90;99.90
21823;DHT22;11074;48.596;9.238;2023-03-14T00:41:18;10.80;99.90
21823;DHT22;11074;48.596;9.238;2023-03-14T00:43:47;10.80;99.90
21823;DHT22;11074;48.596;9.238;2023-03-14T00:46:13;10.80;99.90
21823;DHT22;11074;48.596;9.238;2023-03-14T00:48:39;10.80;99.90
21823;DHT22;11074;48.596;9.238;2023-03-14T00:51:06;10.80;99.90
21823;DHT22;11074;48.596;9.238;2023-03-14T00:53:37;10.80;99.90
21823;DHT22;11074;48.596;9.238;2023-03-14T00:56:06;10.80;99.90
21823;DHT22;11074;48.596;9.238;2023-03-14T00:58:34;10.80;99.90
21823;DHT22;11074;48.596;9.238;2023-03-14T01:01:06;10.70;99.90
21823;DHT22;11074;48.596;9.238;2023-03-14T01:03:33;10.70;99.90
21823;DHT22;11074;48.596;9.238;2023-03-14T01:06:16;10.70;99.90
21823;DHT22;11074;48.596;9.238;2023-03-14T01:08:44;10.70;99.90
21823;DHT22;11074;48.596;9.238;2023-03-14T01:11:14;10.80;99.90
21823;DHT22;11074;48.596;9.238;2023-03-14T01:13:47;10.80;99.90
21823;DHT22;11074;48.596;9.238;2023-03-14T01:16:14;10.80;99.90
21823;DHT22;11074;48.596;9.238;2023-03-14T01:18:42;10.80;99.90
21823;DHT22;11074;48.596;9.238;2023-03-14T01:21:21;10.80;99.90
21823;DHT22;11074;48.596;9.238;2023-03-14T01:23:52;10.80;99.90
21823;DHT22;11074;48.596;9.238;2023-03-14T01:26:21;10.80;99.90
21823;DHT22;11074;48.596;9.238;2023-03-14T01:28:50;10.80;99.90
21823;DHT22;11074;48.596;9.238;2023-03-14T01:31:18;10.80;99.90
21823;DHT22;11074;48.596;9.238;2023-03-14T01:33:44;10.70;99.90
21823;DHT22;11074;48.596;9.238;2023-03-14T01:36:10;10.70;99.90
21823;DHT22;11074;48.596;9.238;2023-03-14T01:38:38;10.70;99.90
21823;DHT22;11074;48.596;9.238;2023-03-14T01:41:07;10.70;99.90
21823;DHT22;11074;48.596;9.238;2023-03-14T01:43:37;10.70;99.90
21823;DHT22;11074;48.596;9.238;2023-03-14T01:48:43;10.70;99.90
21823;DHT22;11074;48.596;9.238;2023-03-14T01:51:26;10.70;99.90
21823;DHT22;11074;48.596;9.238;2023-03-14T01:54:05;10.70;99.90
21823;DHT22;11074;48.596;9.238;2023-03-14T01:56:32;10.70;99.90
21823;DHT22;11074;48.596;9.238;2023-03-14T01:59:01;10.70;99.90
21823;DHT22;11074;48.596;9.238;2023-03-14T02:01:31;10.70;99.90
21823;DHT22;11074;48.596;9.238;2023-03-14T02:04:00;10.70;99.90
21823;DHT22;11074;48.596;9.238;2023-03-14T02:06:34;10.70;99.90
21823;DHT22;11074;48.596;9.238;2023-03-14T02:09:05;10.70;99.90
21823;DHT22;11074;48.596;9.238;2023-03-14T02:11:31;10.70;99.90
21823;DHT22;11074;48.596;9.238;2023-03-14T02:13:58;10.60;99.90
21823;DHT22;11074;48.596;9.238;2023-03-14T02:16:25;10.70;99.90
21823;DHT22;11074;48.596;9.238;2023-03-14T02:18:51;10.60;99.90
21823;DHT22;11074;48.596;9.238;2023-03-14T02:21:38;10.50;99.90
21823;DHT22;11074;48.596;9.238;2023-03-14T02:24:25;10.50;99.90
21823;DHT22;11074;48.596;9.238;2023-03-14T02:27:02;10.50;99.90
21823;DHT22;11074;48.596;9.238;2023-03-14T02:29:32;10.60;99.90
21823;DHT22;11074;48.596;9.238;2023-03-14T02:32:01;10.60;99.90
21823;DHT22;11074;48.596;9.238;2023-03-14T02:34:27;10.60;99.90
21823;DHT22;11074;48.596;9.238;2023-03-14T02:36:54;10.50;99.90
21823;DHT22;11074;48.596;9.238;2023-03-14T02:39:37;10.60;99.90
21823;DHT22;11074;48.596;9.238;2023-03-14T02:42:05;10.50;99.90
21823;DHT22;11074;48.596;9.238;2023-03-14T02:44:30;10.50;99.90
21823;DHT22;11074;48.596;9.238;2023-03-14T02:46:56;10.50;99.90
21823;DHT22;11074;48.596;9.238;2023-03-14T02:49:22;10.50;99.90
21823;DHT22;11074;48.596;9.238;2023-03-14T02:51:50;10.50;99.90
21823;DHT22;11074;48.596;9.238;2023-03-14T02:54:17;10.50;99.90
21823;DHT22;11074;48.596;9.238;2023-03-14T02:56:45;10.40;99.90
21823;DHT22;11074;48.596;9.238;2023-03-14T02:59:10;10.40;99.90
21823;DHT22;11074;48.596;9.238;2023-03-14T03:01:36;10.40;99.90
21823;DHT22;11074;48.596;9.238;2023-03-14T03:04:02;10.40;99.90
21823;DHT22;11074;48.596;9.238;2023-03-14T03:06:27;10.40;99.90
21823;DHT22;11074;48.596;9.238;2023-03-14T03:08:53;10.40;99.90
21823;DHT22;11074;48.596;9.238;2023-03-14T03:11:19;10.40;99.90
21823;DHT22;11074;48.596;9.238;2023-03-14T03:13:44;10.40;99.90
21823;DHT22;11074;48.596;9.238;2023-03-14T03:16:10;10.40;99.90
21823;DHT22;11074;48.596;9.238;2023-03-14T03:18:38;10.30;99.90
21823;DHT22;11074;48.596;9.238;2023-03-14T03:21:05;10.30;99.90
21823;DHT22;11074;48.596;9.238;2023-03-14T03:23:33;10.30;99.90
21823;DHT22;11074;48.596;9.238;2023-03-14T03:25:58;10.30;99.90
21823;DHT22;11074;48.596;9.238;2023-03-14T03:28:24;10.30;99.90
21823;DHT22;11074;48.596;9.238;2023-03-14T03:30:50;10.30;99.90
21823;DHT22;11074;48.596;9.238;2023-03-14T03:33:15;10.30;99.90
21823;DHT22;11074;48.596;9.238;2023-03-14T03:35:43;10.30;99.90
21823;DHT22;11074;48.596;9.238;2023-03-14T03:38:10;10.30;99.90
21823;DHT22;11074;48.596;9.238;2023-03-14T03:40:37;10.20;99.90
21823;DHT22;11074;48.596;9.238;2023-03-14T03:43:02;10.20;99.90
21823;DHT22;11074;48.596;9.238;2023-03-14T03:45:29;10.20;99.90
21823;DHT22;11074;48.596;9.238;2023-03-14T03:47:55;10.20;99.90
21823;DHT22;11074;48.596;9.238;2023-03-14T03:50:21;10.10;99.90
21823;DHT22;11074;48.596;9.238;2023-03-14T03:52:47;10.10;99.90
21823;DHT22;11074;48.596;9.238;2023-03-14T03:55:12;10.10;99.90
21823;DHT22;11074;48.596;9.238;2023-03-14T03:57:38;10.10;99.90
21823;DHT22;11074;48.596;9.238;2023-03-14T04:00:05;10.10;99.90
21823;DHT22;11074;48.596;9.238;2023-03-14T04:02:34;10.10;99.90
21823;DHT22;11074;48.596;9.238;2023-03-14T04:04:59;10.00;99.90
21823;DHT22;11074;48.596;9.238;2023-03-14T04:07:25;10.00;99.90
21823;DHT22;11074;48.596;9.238;2023-03-14T04:09:51;10.00;99.90
21823;DHT22;11074;48.596;9.238;2023-03-14T04:12:16;10.00;99.90
21823;DHT22;11074;48.596;9.238;2023-03-14T04:14:42;10.00;99.90
21823;DHT22;11074;48.596;9.238;2023-03-14T04:17:08;10.00;99.90
21823;DHT22;11074;48.596;9.238;2023-03-14T04:19:33;10.00;99.90
21823;DHT22;11074;48.596;9.238;2023-03-14T04:21:59;10.00;99.90
21823;DHT22;11074;48.596;9.238;2023-03-14T04:24:25;10.00;99.90
21823;DHT22;11074;48.596;9.238;2023-03-14T04:26:50;9.90;99.90
21823;DHT22;11074;48.596;9.238;2023-03-14T04:29:16;10.00;99.90
21823;DHT22;11074;48.596;9.238;2023-03-14T04:31:42;10.00;99.90
21823;DHT22;11074;48.596;9.238;2023-03-14T04:34:08;10.00;99.90
21823;DHT22;11074;48.596;9.238;2023-03-14T04:36:33;9.90;99.90
21823;DHT22;11074;48.596;9.238;2023-03-14T04:38:59;9.90;99.90
21823;DHT22;11074;48.596;9.238;2023-03-14T04:41:25;9.90;99.90
21823;DHT22;11074;48.596;9.238;2023-03-14T04:43:50;9.90;99.90
21823;DHT22;11074;48.596;9.238;2023-03-14T04:46:16;9.80;99.90
21823;DHT22;11074;48.596;9.238;2023-03-14T04:48:42;9.90;99.90
21823;DHT22;11074;48.596;9.238;2023-03-14T04:51:07;9.80;99.90
21823;DHT22;11074;48.596;9.238;2023-03-14T04:53:33;9.90;99.90
21823;DHT22;11074;48.596;9.238;2023-03-14T04:56:01;9.90;99.90
21823;DHT22;11074;48.596;9.238;2023-03-14T04:58:26;9.90;99.90
21823;DHT22;11074;48.596;9.238;2023-03-14T05:00:52;9.80;99.90
21823;DHT22;11074;48.596;9.238;2023-03-14T05:03:18;9.80;99.90
21823;DHT22;11074;48.596;9.238;2023-03-14T05:05:44;9.80;99.90
21823;DHT22;11074;48.596;9.238;2023-03-14T05:08:11;9.80;99.90
21823;DHT22;11074;48.596;9.238;2023-03-14T05:10:37;9.80;99.90
21823;DHT22;11074;48.596;9.238;2023-03-14T05:13:03;9.80;99.90
21823;DHT22;11074;48.596;9.238;2023-03-14T05:15:31;9.80;99.90
21823;DHT22;11074;48.596;9.238;2023-03-14T05:17:57;9.80;99.90
21823;DHT22;11074;48.596;9.238;2023-03-14T05:20:26;9.80;99.90
21823;DHT22;11074;48.596;9.238;2023-03-14T05:22:51;9.80;99.90
21823;DHT22;11074;48.596;9.238;2023-03-14T05:25:17;9.80;99.90
21823;DHT22;11074;48.596;9.238;2023-03-14T05:27:43;9.80;99.90
21823;DHT22;11074;48.596;9.238;2023-03-14T05:30:09;9.80;99.90
21823;DHT22;11074;48.596;9.238;2023-03-14T05:32:35;9.80;99.90
21823;DHT22;11074;48.596;9.238;2023-03-14T05:35:01;9.80;99.90
21823;DHT22;11074;48.596;9.238;2023-03-14T05:37:27;9.80;99.90
21823;DHT22;11074;48.596;9.238;2023-03-14T05:39:53;9.80;99.90
21823;DHT22;11074;48.596;9.238;2023-03-14T05:42:18;9.80;99.90
21823;DHT22;11074;48.596;9.238;2023-03-14T05:44:44;9.80;99.90
21823;DHT22;11074;48.596;9.238;2023-03-14T05:47:10;9.70;99.90
21823;DHT22;11074;48.596;9.238;2023-03-14T05:49:35;9.80;99.90
21823;DHT22;11074;48.596;9.238;2023-03-14T05:52:01;9.80;99.90
21823;DHT22;11074;48.596;9.238;2023-03-14T05:54:27;9.80;99.90
21823;DHT22;11074;48.596;9.238;2023-03-14T05:56:53;9.70;99.90
21823;DHT22;11074;48.596;9.238;2023-03-14T05:59:18;9.70;99.90
21823;DHT22;11074;48.596;9.238;2023-03-14T06:01:44;9.70;99.90
21823;DHT22;11074;48.596;9.238;2023-03-14T06:04:10;9.70;99.90
21823;DHT22;11074;48.596;9.238;2023-03-14T06:06:35;9.70;99.90
21823;DHT22;11074;48.596;9.238;2023-03-14T06:09:01;9.70;99.90
21823;DHT22;11074;48.596;9.238;2023-03-14T06:11:27;9.70;99.90
21823;DHT22;11074;48.596;9.238;2023-03-14T06:13:53;9.70;99.90
21823;DHT22;11074;48.596;9.238;2023-03-14T06:16:19;9.70;99.90
21823;DHT22;11074;48.596;9.238;2023-03-14T06:18:44;9.80;99.90
21823;DHT22;11074;48.596;9.238;2023-03-14T06:21:12;9.70;99.90
21823;DHT22;11074;48.596;9.238;2023-03-14T06:23:38;9.70;99.90
21823;DHT22;11074;48.596;9.238;2023-03-14T06:26:04;9.70;99.90
21823;DHT22;11074;48.596;9.238;2023-03-14T06:28:30;9.80;99.90
21823;DHT22;11074;48.596;9.238;2023-03-14T06:30:56;9.80;99.90
21823;DHT22;11074;48.596;9.238;2023-03-14T06:33:23;9.80;99.90
21823;DHT22;11074;48.596;9.238;2023-03-14T06:35:49;9.80;99.90
21823;DHT22;11074;48.596;9.238;2023-03-14T06:38:14;9.80;99.90
21823;DHT22;11074;48.596;9.238;2023-03-14T06:40:40;9.80;99.90
21823;DHT22;11074;48.596;9.238;2023-03-14T06:43:06;9.80;99.90
21823;DHT22;11074;48.596;9.238;2023-03-14T06:45:32;9.80;99.90
21823;DHT22;11074;48.596;9.238;2023-03-14T06:47:57;9.80;99.90
21823;DHT22;11074;48.596;9.238;2023-03-14T06:50:23;9.90;99.90
21823;DHT22;11074;48.596;9.238;2023-03-14T06:52:49;9.90;99.90
21823;DHT22;11074;48.596;9.238;2023-03-14T06:55:15;9.90;99.90
21823;DHT22;11074;48.596;9.238;2023-03-14T06:57:41;9.90;99.90
21823;DHT22;11074;48.596;9.238;2023-03-14T07:00:07;9.90;99.90
21823;DHT22;11074;48.596;9.238;2023-03-14T07:02:34;10.00;99.90
21823;DHT22;11074;48.596;9.238;2023-03-14T07:04:59;10.10;99.90
21823;DHT22;11074;48.596;9.238;2023-03-14T07:07:26;10.10;99.90
21823;DHT22;11074;48.596;9.238;2023-03-14T07:09:52;10.10;99.90
21823;DHT22;11074;48.596;9.238;2023-03-14T07:12:18;10.20;99.90
21823;DHT22;11074;48.596;9.238;2023-03-14T07:14:44;10.20;99.90
21823;DHT22;11074;48.596;9.238;2023-03-14T07:17:09;10.20;99.90
21823;DHT22;11074;48.596;9.238;2023-03-14T07:19:35;10.30;99.90
21823;DHT22;11074;48.596;9.238;2023-03-14T07:22:01;10.40;99.90
21823;DHT22;11074;48.596;9.238;2023-03-14T07:24:27;10.40;99.90
21823;DHT22;11074;48.596;9.238;2023-03-14T07:26:52;10.50;99.90
21823;DHT22;11074;48.596;9.238;2023-03-14T07:29:18;10.40;99.90
21823;DHT22;11074;48.596;9.238;2023-03-14T07:31:44;10.40;99.90
21823;DHT22;11074;48.596;9.238;2023-03-14T07:34:09;10.40;99.90
21823;DHT22;11074;48.596;9.238;2023-03-14T07:36:35;10.40;99.90
21823;DHT22;11074;48.596;9.238;2023-03-14T07:39:01;10.50;99.90
21823;DHT22;11074;48.596;9.238;2023-03-14T07:41:26;10.60;99.90
21823;DHT22;11074;48.596;9.238;2023-03-14T07:43:52;10.80;99.90
21823;DHT22;11074;48.596;9.238;2023-03-14T07:46:18;10.80;99.90
21823;DHT22;11074;48.596;9.238;2023-03-14T07:48:43;10.90;99.90
21823;DHT22;11074;48.596;9.238;2023-03-14T07:51:10;10.90;99.90
21823;DHT22;11074;48.596;9.238;2023-03-14T07:53:35;10.90;99.90
21823;DHT22;11074;48.596;9.238;2023-03-14T07:56:01;10.90;99.90
21823;DHT22;11074;48.596;9.238;2023-03-14T07:58:27;10.90;99.90
21823;DHT22;11074;48.596;9.238;2023-03-14T08:00:52;11.00;99.90
21823;DHT22;11074;48.596;9.238;2023-03-14T08:03:19;11.10;99.90
21823;DHT22;11074;48.596;9.238;2023-03-14T08:05:47;11.20;99.90
21823;DHT22;11074;48.596;9.238;2023-03-14T08:08:14;11.40;99.90
21823;DHT22;11074;48.596;9.238;2023-03-14T08:10:40;11.50;99.90
21823;DHT22;11074;48.596;9.238;2023-03-14T08:13:05;11.60;99.90
21823;DHT22;11074;48.596;9.238;2023-03-14T08:15:31;11.70;99.90
21823;DHT22;11074;48.596;9.238;2023-03-14T08:17:57;11.70;99.90
21823;DHT22;11074;48.596;9.238;2023-03-14T08:20:26;11.60;99.90
21823;DHT22;11074;48.596;9.238;2023-03-14T08:22:56;11.60;99.90
21823;DHT22;11074;48.596;9.238;2023-03-14T08:25:23;11.60;99.90
21823;DHT22;11074;48.596;9.238;2023-03-14T08:27:49;11.60;99.90
21823;DHT22;11074;48.596;9.238;2023-03-14T08:30:17;11.60;99.90
21823;DHT22;11074;48.596;9.238;2023-03-14T08:32:44;11.60;99.90
21823;DHT22;11074;48.596;9.238;2023-03-14T08:35:11;11.60;99.90
21823;DHT22;11074;48.596;9.238;2023-03-14T08:37:37;11.50;99.90
21823;DHT22;11074;48.596;9.238;2023-03-14T08:40:04;11.60;99.90
21823;DHT22;11074;48.596;9.238;2023-03-14T08:42:38;11.70;99.90
21823;DHT22;11074;48.596;9.238;2023-03-14T08:45:06;11.80;99.90
21823;DHT22;11074;48.596;9.238;2023-03-14T08:47:32;11.90;99.90
21823;DHT22;11074;48.596;9.238;2023-03-14T08:49:58;12.20;99.90
21823;DHT22;11074;48.596;9.238;2023-03-14T08:52:24;12.40;99.90
21823;DHT22;11074;48.596;9.238;2023-03-14T08:54:50;12.50;99.90
21823;DHT22;11074;48.596;9.238;2023-03-14T08:57:15;12.50;99.90
21823;DHT22;11074;48.596;9.238;2023-03-14T08:59:41;12.60;99.90
21823;DHT22;11074;48.596;9.238;2023-03-14T09:02:10;12.60;99.90
21823;DHT22;11074;48.596;9.238;2023-03-14T09:04:36;12.60;99.90
21823;DHT22;11074;48.596;9.238;2023-03-14T09:07:02;12.80;99.90
21823;DHT22;11074;48.596;9.238;2023-03-14T09:09:28;12.80;99.90
21823;DHT22;11074;48.596;9.238;2023-03-14T09:11:55;12.80;99.90
21823;DHT22;11074;48.596;9.238;2023-03-14T09:14:22;12.70;99.90
21823;DHT22;11074;48.596;9.238;2023-03-14T09:16:48;12.60;99.90
21823;DHT22;11074;48.596;9.238;2023-03-14T09:19:14;12.40;99.90
21823;DHT22;11074;48.596;9.238;2023-03-14T09:21:40;12.50;99.90
21823;DHT22;11074;48.596;9.238;2023-03-14T09:24:06;12.60;99.90
21823;DHT22;11074;48.596;9.238;2023-03-14T09:26:31;12.60;99.90
21823;DHT22;11074;48.596;9.238;2023-03-14T09:28:57;12.50;99.90
21823;DHT22;11074;48.596;9.238;2023-03-14T09:31:23;12.60;99.90
21823;DHT22;11074;48.596;9.238;2023-03-14T09:33:48;12.70;99.90
21823;DHT22;11074;48.596;9.238;2023-03-14T09:36:14;12.70;99.90
21823;DHT22;11074;48.596;9.238;2023-03-14T09:38:41;12.60;99.90
21823;DHT22;11074;48.596;9.238;2023-03-14T09:43:50;12.30;99.90
21823;DHT22;11074;48.596;9.238;2023-03-14T09:46:26;12.20;99.90
21823;DHT22;11074;48.596;9.238;2023-03-14T09:48:54;12.00;99.90
21823;DHT22;11074;48.596;9.238;2023-03-14T09:51:20;11.80;99.90
21823;DHT22;11074;48.596;9.238;2023-03-14T09:53:49;11.70;99.90
21823;DHT22;11074;48.596;9.238;2023-03-14T09:56:26;11.60;99.90
21823;DHT22;11074;48.596;9.238;2023-03-14T09:59:05;11.60;99.90
21823;DHT22;11074;48.596;9.238;2023-03-14T10:01:38;11.50;99.90
21823;DHT22;11074;48.596;9.238;2023-03-14T10:04:09;11.40;99.90
21823;DHT22;11074;48.596;9.238;2023-03-14T10:06:39;11.40;99.90
21823;DHT22;11074;48.596;9.238;2023-03-14T10:09:05;11.40;99.90
21823;DHT22;11074;48.596;9.238;2023-03-14T10:11:31;11.40;99.90
21823;DHT22;11074;48.596;9.238;2023-03-14T10:14:05;11.50;99.90
21823;DHT22;11074;48.596;9.238;2023-03-14T10:16:42;11.50;99.90
21823;DHT22;11074;48.596;9.238;2023-03-14T10:19:15;11.60;99.90
21823;DHT22;11074;48.596;9.238;2023-03-14T10:21:52;11.70;99.90
21823;DHT22;11074;48.596;9.238;2023-03-14T10:24:33;11.80;99.90
21823;DHT22;11074;48.596;9.238;2023-03-14T10:27:06;11.90;99.90
21823;DHT22;11074;48.596;9.238;2023-03-14T10:29:56;12.10;99.90
21823;DHT22;11074;48.596;9.238;2023-03-14T10:32:36;12.20;99.90
21823;DHT22;11074;48.596;9.238;2023-03-14T10:37:57;12.40;99.90
21823;DHT22;11074;48.596;9.238;2023-03-14T10:40:30;12.40;99.90
21823;DHT22;11074;48.596;9.238;2023-03-14T10:43:01;12.40;99.90
21823;DHT22;11074;48.596;9.238;2023-03-14T10:45:47;12.40;99.90
21823;DHT22;11074;48.596;9.238;2023-03-14T10:48:21;12.40;99.90
21823;DHT22;11074;48.596;9.238;2023-03-14T10:53:41;12.60;99.90
21823;DHT22;11074;48.596;9.238;2023-03-14T10:56:13;12.60;99.90
21823;DHT22;11074;48.596;9.238;2023-03-14T10:58:43;12.60;99.90
21823;DHT22;11074;48.596;9.238;2023-03-14T11:01:32;12.50;99.90
21823;DHT22;11074;48.596;9.238;2023-03-14T11:15:46;12.50;99.90
21823;DHT22;11074;48.596;9.238;2023-03-14T11:25:21;12.40;99.90
21823;DHT22;11074;48.596;9.238;2023-03-14T11:28:37;12.20;99.90
21823;DHT22;11074;48.596;9.238;2023-03-14T11:31:27;12.00;99.90
21823;DHT22;11074;48.596;9.238;2023-03-14T11:36:59;12.00;99.90
21823;DHT22;11074;48.596;9.238;2023-03-14T11:39:41;12.00;99.90
21823;DHT22;11074;48.596;9.238;2023-03-14T11:42:17;11.90;99.90
21823;DHT22;11074;48.596;9.238;2023-03-14T11:44:46;11.80;99.90
21823;DHT22;11074;48.596;9.238;2023-03-14T11:50:16;11.50;99.90
21823;DHT22;11074;48.596;9.238;2023-03-14T11:52:50;11.50;99.90
21823;DHT22;11074;48.596;9.238;2023-03-14T11:55:30;11.50;99.90
21823;DHT22;11074;48.596;9.238;2023-03-14T11:58:12;11.50;99.90
21823;DHT22;11074;48.596;9.238;2023-03-14T12:00:53;11.50;99.90
21823;DHT22;11074;48.596;9.238;2023-03-14T12:03:35;11.60;99.90
21823;DHT22;11074;48.596;9.238;2023-03-14T12:09:20;11.50;99.90
21823;DHT22;11074;48.596;9.238;2023-03-14T12:17:03;11.30;99.90
21823;DHT22;11074;48.596;9.238;2023-03-14T12:19:43;11.30;99.90
21823;DHT22;11074;48.596;9.238;2023-03-14T12:25:23;11.30;99.90
21823;DHT22;11074;48.596;9.238;2023-03-14T12:30:37;11.20;99.90
21823;DHT22;11074;48.596;9.238;2023-03-14T12:41:23;11.40;99.90
21823;DHT22;11074;48.596;9.238;2023-03-14T12:43:54;11.60;99.90
21823;DHT22;11074;48.596;9.238;2023-03-14T12:46:22;11.70;99.90
21823;DHT22;11074;48.596;9.238;2023-03-14T12:51:39;12.00;99.90
21823;DHT22;11074;48.596;9.238;2023-03-14T12:54:43;11.90;99.90
21823;DHT22;11074;48.596;9.238;2023-03-14T12:57:31;12.00;99.90
21823;DHT22;11074;48.596;9.238;2023-03-14T13:00:22;11.90;99.90
21823;DHT22;11074;48.596;9.238;2023-03-14T13:03:01;11.80;99.90
21823;DHT22;11074;48.596;9.238;2023-03-14T13:05:55;11.90;99.90
21823;DHT22;11074;48.596;9.238;2023-03-14T13:11:04;12.00;99.90
21823;DHT22;11074;48.596;9.238;2023-03-14T13:13:35;12.00;99.90
21823;DHT22;11074;48.596;9.238;2023-03-14T13:16:09;12.10;99.90
21823;DHT22;11074;48.596;9.238;2023-03-14T13:19:09;12.20;99.90
21823;DHT22;11074;48.596;9.238;2023-03-14T13:21:42;12.30;99.90
21823;DHT22;11074;48.596;9.238;2023-03-14T13:24:26;12.20;99.90
21823;DHT22;11074;48.596;9.238;2023-03-14T13:26:56;12.10;99.90
21823;DHT22;11074;48.596;9.238;2023-03-14T13:29:30;11.90;99.90
21823;DHT22;11074;48.596;9.238;2023-03-14T13:31:59;11.80;99.90
21823;DHT22;11074;48.596;9.238;2023-03-14T13:34:32;11.90;99.90
21823;DHT22;11074;48.596;9.238;2023-03-14T13:36:59;11.70;99.90
21823;DHT22;11074;48.596;9.238;2023-03-14T13:39:27;11.80;99.90
21823;DHT22;11074;48.596;9.238;2023-03-14T13:41:58;11.90;99.90
21823;DHT22;11074;48.596;9.238;2023-03-14T13:44:36;11.90;99.90
21823;DHT22;11074;48.596;9.238;2023-03-14T13:47:09;11.70;99.90
21823;DHT22;11074;48.596;9.238;2023-03-14T13:49:39;11.50;99.90
21823;DHT22;11074;48.596;9.238;2023-03-14T13:52:22;11.40;99.90
21823;DHT22;11074;48.596;9.238;2023-03-14T13:55:00;11.30;99.90
21823;DHT22;11074;48.596;9.238;2023-03-14T13:57:43;11.20;99.90
21823;DHT22;11074;48.596;9.238;2023-03-14T14:00:18;11.00;99.90
21823;DHT22;11074;48.596;9.238;2023-03-14T14:02:46;10.80;99.90
21823;DHT22;11074;48.596;9.238;2023-03-14T14:05:14;10.70;99.90
21823;DHT22;11074;48.596;9.238;2023-03-14T14:07:42;10.60;99.90
21823;DHT22;11074;48.596;9.238;2023-03-14T14:10:12;10.60;99.90
21823;DHT22;11074;48.596;9.238;2023-03-14T14:12:55;10.70;99.90
21823;DHT22;11074;48.596;9.238;2023-03-14T14:15:28;10.70;99.90
21823;DHT22;11074;48.596;9.238;2023-03-14T14:18:04;10.70;99.90
21823;DHT22;11074;48.596;9.238;2023-03-14T14:20:41;10.60;99.90
21823;DHT22;11074;48.596;9.238;2023-03-14T14:23:19;10.60;99.90
21823;DHT22;11074;48.596;9.238;2023-03-14T14:25:51;10.60;99.90
21823;DHT22;11074;48.596;9.238;2023-03-14T14:33:41;10.80;99.90
21823;DHT22;11074;48.596;9.238;2023-03-14T14:36:36;10.90;99.90
21823;DHT22;11074;48.596;9.238;2023-03-14T14:41:33;11.00;99.90
21823;DHT22;11074;48.596;9.238;2023-03-14T14:44:03;10.90;99.90
21823;DHT22;11074;48.596;9.238;2023-03-14T14:46:32;10.70;99.90
21823;DHT22;11074;48.596;9.238;2023-03-14T14:49:13;10.60;99.90
21823;DHT22;11074;48.596;9.238;2023-03-14T14:51:47;10.60;99.90
21823;DHT22;11074;48.596;9.238;2023-03-14T14:54:17;10.50;99.90
21823;DHT22;11074;48.596;9.238;2023-03-14T14:56:50;10.60;99.90
21823;DHT22;11074;48.596;9.238;2023-03-14T14:59:26;10.50;99.90
21823;DHT22;11074;48.596;9.238;2023-03-14T15:01:58;10.50;99.90
21823;DHT22;11074;48.596;9.238;2023-03-14T15:04:26;10.50;99.90
21823;DHT22;11074;48.596;9.238;2023-03-14T15:06:55;10.70;99.90
21823;DHT22;11074;48.596;9.238;2023-03-14T15:09:20;10.70;99.90
21823;DHT22;11074;48.596;9.238;2023-03-14T15:11:47;10.80;99.90
21823;DHT22;11074;48.596;9.238;2023-03-14T15:14:13;10.70;99.90
21823;DHT22;11074;48.596;9.238;2023-03-14T15:16:40;10.70;99.90
21823;DHT22;11074;48.596;9.238;2023-03-14T15:19:21;10.80;99.90
21823;DHT22;11074;48.596;9.238;2023-03-14T15:21:50;10.80;99.90
21823;DHT22;11074;48.596;9.238;2023-03-14T15:24:17;10.80;99.90
21823;DHT22;11074;48.596;9.238;2023-03-14T15:26:42;10.70;99.90
21823;DHT22;11074;48.596;9.238;2023-03-14T15:29:11;10.90;99.90
21823;DHT22;11074;48.596;9.238;2023-03-14T15:31:38;11.10;99.90
21823;DHT22;11074;48.596;9.238;2023-03-14T15:34:05;11.30;99.90
21823;DHT22;11074;48.596;9.238;2023-03-14T15:36:33;11.10;99.90
21823;DHT22;11074;48.596;9.238;2023-03-14T15:39:00;10.80;99.90
21823;DHT22;11074;48.596;9.238;2023-03-14T15:41:27;10.60;99.90
21823;DHT22;11074;48.596;9.238;2023-03-14T15:43:53;10.50;99.90
21823;DHT22;11074;48.596;9.238;2023-03-14T15:46:20;10.50;99.90
21823;DHT22;11074;48.596;9.238;2023-03-14T15:48:47;10.50;99.90
21823;DHT22;11074;48.596;9.238;2023-03-14T15:51:15;10.50;99.90
21823;DHT22;11074;48.596;9.238;2023-03-14T15:53:41;10.40;99.90
21823;DHT22;11074;48.596;9.238;2023-03-14T15:56:12;10.30;99.90
21823;DHT22;11074;48.596;9.238;2023-03-14T15:58:43;10.30;99.90
21823;DHT22;11074;48.596;9.238;2023-03-14T16:01:12;10.20;99.90
21823;DHT22;11074;48.596;9.238;2023-03-14T16:03:39;10.20;99.90
21823;DHT22;11074;48.596;9.238;2023-03-14T16:06:05;10.20;99.90
21823;DHT22;11074;48.596;9.238;2023-03-14T16:08:31;10.10;99.90
21823;DHT22;11074;48.596;9.238;2023-03-14T16:10:59;10.20;99.90
21823;DHT22;11074;48.596;9.238;2023-03-14T16:13:25;10.00;99.90
21823;DHT22;11074;48.596;9.238;2023-03-14T16:16:00;10.10;99.90
21823;DHT22;11074;48.596;9.238;2023-03-14T16:18:28;10.10;99.90
21823;DHT22;11074;48.596;9.238;2023-03-14T16:20:58;10.10;99.90
21823;DHT22;11074;48.596;9.238;2023-03-14T16:23:27;10.10;99.90
21823;DHT22;11074;48.596;9.238;2023-03-14T16:25:54;10.10;99.90
21823;DHT22;11074;48.596;9.238;2023-03-14T16:28:21;10.10;99.90
21823;DHT22;11074;48.596;9.238;2023-03-14T16:30:47;10.00;99.90
21823;DHT22;11074;48.596;9.238;2023-03-14T16:33:14;10.00;99.90
21823;DHT22;11074;48.596;9.238;2023-03-14T16:35:40;10.00;99.90
21823;DHT22;11074;48.596;9.238;2023-03-14T16:38:08;10.00;99.90
21823;DHT22;11074;48.596;9.238;2023-03-14T16:40:33;10.00;99.90
21823;DHT22;11074;48.596;9.238;2023-03-14T16:42:59;9.90;99.90
21823;DHT22;11074;48.596;9.238;2023-03-14T16:45:28;9.90;99.90
21823;DHT22;11074;48.596;9.238;2023-03-14T16:47:54;9.90;99.90
21823;DHT22;11074;48.596;9.238;2023-03-14T16:50:19;9.80;99.90
21823;DHT22;11074;48.596;9.238;2023-03-14T16:52:45;9.80;99.90
21823;DHT22;11074;48.596;9.238;2023-03-14T16:55:13;9.80;99.90
21823;DHT22;11074;48.596;9.238;2023-03-14T16:57:39;9.80;99.90